Time;durP1;ratioP1;P1;durP2;ratioP2;P2;SDS_P1;SDS_P2;PMS_P1;PMS_P2;Temp;Humidity;BMP_temperature;BMP_pressure;BME280_temperature;BME280_humidity;BME280_pressure;Samples;Min_cycle;Max_cycle;Signal;HPM_P1;HPM_P2
2023/12/04 00:00:52;;;;;;;2.30;1.13;;;24.40;99.90;;;;;;5013235;28;20170;-73
2023/12/04 00:03:19;;;;;;;8.17;1.47;;;24.90;99.90;;;;;;5012426;28;20188;-72
2023/12/04 00:19:49;;;;;;;4.27;1.13;;;26.10;99.90;;;;;;5008023;28;20196;-73
2023/12/04 00:22:16;;;;;;;4.60;0.97;;;25.80;99.90;;;;;;5012699;28;20189;-73
2023/12/04 00:24:44;;;;;;;6.67;1.20;;;25.70;99.90;;;;;;5013579;28;20189;-73
2023/12/04 00:27:11;;;;;;;5.93;1.63;;;25.60;99.90;;;;;;5013403;28;20253;-71
2023/12/04 00:29:39;;;;;;;6.80;1.20;;;25.40;99.90;;;;;;5012971;28;20740;-73
2023/12/04 00:32:06;;;;;;;6.23;1.23;;;25.30;99.90;;;;;;5012290;28;20217;-72
2023/12/04 00:34:34;;;;;;;4.03;0.93;;;25.50;99.90;;;;;;5012651;28;20709;-73
2023/12/04 00:37:01;;;;;;;5.80;1.37;;;26.90;99.90;;;;;;5012197;28;20193;-73
2023/12/04 00:39:28;;;;;;;3.73;1.03;;;27.80;99.90;;;;;;5011813;28;20520;-73
2023/12/04 00:41:56;;;;;;;4.87;1.27;;;28.40;99.90;;;;;;5012791;28;20649;-72
2023/12/04 00:44:23;;;;;;;3.03;1.00;;;27.50;99.90;;;;;;5012192;28;20324;-72
2023/12/04 00:46:50;;;;;;;8.87;1.10;;;26.70;99.90;;;;;;5012913;28;20398;-73
2023/12/04 00:49:18;;;;;;;2.50;1.00;;;26.40;99.90;;;;;;5012955;28;20182;-73
2023/12/04 00:51:45;;;;;;;9.70;1.63;;;26.80;99.90;;;;;;5012284;28;20259;-72
2023/12/04 00:57:34;;;;;;;2.37;1.10;;;27.50;99.90;;;;;;5013316;28;20233;-71
2023/12/04 01:03:26;;;;;;;4.30;1.43;;;27.30;99.90;;;;;;4998845;28;20557;-72
2023/12/04 01:05:53;;;;;;;5.20;1.40;;;27.30;99.90;;;;;;5011287;28;20182;-72
2023/12/04 01:08:21;;;;;;;5.03;1.30;;;26.90;99.90;;;;;;5012609;28;20193;-72
2023/12/04 01:10:48;;;;;;;3.13;1.00;;;26.50;99.90;;;;;;5012956;28;20202;-73
2023/12/04 01:13:15;;;;;;;5.53;1.07;;;26.20;99.90;;;;;;5010424;28;20182;-73
2023/12/04 01:15:44;;;;;;;3.40;1.00;;;27.30;99.90;;;;;;5012645;28;20173;-73
2023/12/04 01:18:12;;;;;;;4.00;1.23;;;28.40;99.90;;;;;;5011180;28;20196;-72
2023/12/04 01:20:39;;;;;;;3.03;1.30;;;27.60;99.90;;;;;;5000548;28;20178;-73
2023/12/04 01:23:06;;;;;;;8.20;1.47;;;27.30;99.90;;;;;;5012276;28;20173;-72
2023/12/04 01:25:33;;;;;;;2.87;0.90;;;27.00;99.90;;;;;;5012336;28;20186;-73
2023/12/04 01:28:01;;;;;;;7.73;1.60;;;26.70;99.90;;;;;;5012081;28;20666;-73
2023/12/04 01:30:28;;;;;;;7.40;1.07;;;26.10;99.90;;;;;;5012219;28;20176;-73
2023/12/04 01:32:55;;;;;;;5.23;1.47;;;25.80;99.90;;;;;;5012480;28;20182;-73
2023/12/04 01:35:23;;;;;;;6.47;1.30;;;25.70;99.90;;;;;;5013385;28;20293;-73
2023/12/04 01:37:50;;;;;;;5.20;1.10;;;25.60;99.90;;;;;;5013198;28;20221;-72
2023/12/04 01:40:18;;;;;;;8.47;1.07;;;25.50;99.90;;;;;;5013234;28;20174;-72
2023/12/04 01:42:45;;;;;;;13.70;1.57;;;25.60;99.90;;;;;;5014489;28;20173;-73
2023/12/04 01:45:12;;;;;;;5.33;1.13;;;25.70;99.90;;;;;;5017507;28;20216;-73
2023/12/04 01:47:40;;;;;;;3.53;1.00;;;25.90;99.90;;;;;;5016199;28;20178;-73
2023/12/04 01:53:30;;;;;;;3.00;1.30;;;26.60;99.90;;;;;;5016524;28;20725;-73
2023/12/04 01:55:57;;;;;;;5.57;1.23;;;27.30;99.90;;;;;;5017180;28;20174;-72
2023/12/04 01:58:25;;;;;;;2.83;0.90;;;27.30;99.90;;;;;;5017008;28;20225;-73
2023/12/04 02:00:52;;;;;;;4.57;1.10;;;27.10;99.90;;;;;;5017326;28;20174;-72
2023/12/04 02:03:20;;;;;;;5.23;0.80;;;26.70;99.90;;;;;;5017083;28;20181;-73
2023/12/04 02:05:47;;;;;;;3.43;1.23;;;27.10;99.90;;;;;;5017081;28;20212;-72
2023/12/04 02:08:15;;;;;;;5.93;1.43;;;28.10;99.90;;;;;;4995592;28;20185;-72
2023/12/04 02:10:43;;;;;;;6.07;1.07;;;28.40;99.90;;;;;;5014948;28;20173;-72
2023/12/04 02:13:11;;;;;;;5.97;0.97;;;27.60;99.90;;;;;;5014820;28;20281;-72
2023/12/04 02:15:38;;;;;;;4.43;1.10;;;26.80;99.90;;;;;;5013669;28;20185;-73
2023/12/04 02:21:27;;;;;;;6.27;1.10;;;26.60;99.90;;;;;;5014569;28;20189;-73
2023/12/04 02:23:55;;;;;;;5.40;1.20;;;26.50;99.90;;;;;;5013443;28;20641;-72
2023/12/04 02:26:29;;;;;;;3.13;1.00;;;26.60;99.90;;;;;;5015484;28;20643;-72
2023/12/04 02:29:01;;;;;;;7.27;1.20;;;26.70;99.90;;;;;;5015431;28;20286;-70
2023/12/04 02:31:29;;;;;;;8.00;1.23;;;27.00;99.90;;;;;;5013520;28;20550;-72
2023/12/04 02:33:58;;;;;;;6.10;0.90;;;27.00;99.90;;;;;;5013617;28;20181;-72
2023/12/04 02:36:27;;;;;;;4.70;1.43;;;26.80;99.90;;;;;;5012696;28;20178;-72
2023/12/04 02:38:54;;;;;;;5.77;1.40;;;26.70;99.90;;;;;;5014823;28;20174;-73
2023/12/04 02:41:22;;;;;;;4.30;1.27;;;26.70;99.90;;;;;;5014935;28;20190;-73
2023/12/04 02:43:49;;;;;;;6.63;1.70;;;26.80;99.90;;;;;;5015122;28;20264;-73
2023/12/04 02:46:17;;;;;;;6.03;1.20;;;26.60;99.90;;;;;;5014345;28;20518;-73
2023/12/04 02:48:44;;;;;;;3.13;1.10;;;26.60;99.90;;;;;;5014688;28;20183;-74
2023/12/04 02:51:12;;;;;;;4.30;1.10;;;26.60;99.90;;;;;;5013515;28;20244;-72
2023/12/04 02:53:39;;;;;;;4.67;1.20;;;26.40;99.90;;;;;;5014192;28;20182;-72
2023/12/04 02:56:07;;;;;;;5.57;1.13;;;26.60;99.90;;;;;;5014381;28;20174;-73
2023/12/04 02:58:34;;;;;;;4.83;1.27;;;27.00;99.90;;;;;;5014596;28;20581;-73
2023/12/04 03:01:02;;;;;;;6.10;1.17;;;27.10;99.90;;;;;;5013034;28;20189;-72
2023/12/04 03:03:29;;;;;;;3.80;1.13;;;28.00;99.90;;;;;;5013289;28;20224;-74
2023/12/04 03:05:56;;;;;;;3.53;1.20;;;28.20;99.90;;;;;;5014699;28;20185;-75
2023/12/04 03:08:23;;;;;;;2.80;1.13;;;28.80;99.90;;;;;;5014063;28;20178;-72
2023/12/04 03:10:51;;;;;;;4.60;1.20;;;29.00;99.90;;;;;;5013804;28;20217;-72
2023/12/04 03:13:18;;;;;;;3.37;1.07;;;29.30;99.90;;;;;;5014200;28;20685;-71
2023/12/04 03:15:45;;;;;;;3.57;1.10;;;29.40;99.90;;;;;;5014081;28;20205;-73
2023/12/04 03:18:13;;;;;;;4.50;0.90;;;29.60;99.90;;;;;;5014041;28;20261;-71
2023/12/04 03:20:40;;;;;;;4.23;1.30;;;29.30;99.90;;;;;;5014284;28;20635;-70
2023/12/04 03:23:07;;;;;;;4.13;1.07;;;29.50;99.90;;;;;;5014464;28;20567;-73
2023/12/04 03:25:35;;;;;;;3.47;1.20;;;30.00;99.90;;;;;;5014254;28;20285;-73
2023/12/04 03:28:02;;;;;;;6.00;1.50;;;30.00;99.90;;;;;;5013146;28;20186;-74
2023/12/04 03:30:29;;;;;;;3.40;1.00;;;30.10;99.90;;;;;;5013854;28;20177;-72
2023/12/04 03:32:57;;;;;;;3.83;1.00;;;30.30;99.90;;;;;;5013598;28;20289;-71
2023/12/04 03:35:24;;;;;;;4.77;1.40;;;30.60;99.90;;;;;;5014496;28;20170;-72
2023/12/04 03:37:52;;;;;;;4.90;1.47;;;30.10;99.90;;;;;;5013657;28;20212;-72
2023/12/04 03:40:19;;;;;;;4.13;1.00;;;30.20;99.90;;;;;;5014279;28;20178;-73
2023/12/04 03:42:46;;;;;;;5.63;1.30;;;29.60;99.90;;;;;;5014454;28;20177;-73
2023/12/04 03:45:13;;;;;;;5.20;1.63;;;29.90;99.90;;;;;;5013701;28;20647;-74
2023/12/04 03:47:41;;;;;;;3.23;1.10;;;28.90;99.90;;;;;;5013902;28;20190;-72
2023/12/04 03:50:08;;;;;;;6.03;1.37;;;29.00;99.90;;;;;;5013534;28;20185;-73
2023/12/04 03:52:36;;;;;;;5.73;1.60;;;28.90;99.90;;;;;;5013554;28;20241;-72
2023/12/04 03:55:21;;;;;;;7.07;1.23;;;29.60;99.90;;;;;;5013898;28;20231;-72
2023/12/04 04:00:53;;;;;;;5.60;1.00;;;30.70;99.90;;;;;;5011120;28;20228;-73
2023/12/04 04:03:20;;;;;;;5.20;1.00;;;30.20;99.90;;;;;;5013754;28;20667;-73
2023/12/04 04:05:47;;;;;;;5.13;0.70;;;29.40;99.90;;;;;;5013098;28;20170;-73
2023/12/04 04:08:14;;;;;;;6.47;1.10;;;28.50;99.90;;;;;;5012868;28;20181;-72
2023/12/04 04:10:42;;;;;;;4.33;0.93;;;27.70;99.90;;;;;;5012049;28;20216;-72
2023/12/04 04:13:09;;;;;;;2.63;0.90;;;27.40;99.90;;;;;;5013697;28;20567;-73
2023/12/04 04:15:36;;;;;;;3.87;1.13;;;27.20;99.90;;;;;;5013226;28;20178;-72
2023/12/04 04:18:04;;;;;;;3.47;1.03;;;28.00;99.90;;;;;;5013909;28;20537;-71
2023/12/04 04:20:31;;;;;;;7.17;1.30;;;28.70;99.90;;;;;;5012880;28;20690;-74
2023/12/04 04:22:58;;;;;;;4.77;1.20;;;29.10;99.90;;;;;;5013020;28;20228;-73
2023/12/04 04:25:26;;;;;;;6.17;1.30;;;29.20;99.90;;;;;;5013550;28;20178;-73
2023/12/04 04:28:05;;;;;;;5.80;1.10;;;28.40;99.90;;;;;;5089935;27;20619;-73
2023/12/04 04:30:32;;;;;;;5.47;1.33;;;27.70;99.90;;;;;;5089028;28;20651;-73
2023/12/04 04:33:00;;;;;;;3.57;1.10;;;27.40;99.90;;;;;;5089744;28;20181;-72
2023/12/04 04:35:27;;;;;;;2.27;1.00;;;28.00;99.90;;;;;;5089820;28;20631;-71
2023/12/04 04:37:54;;;;;;;5.47;1.00;;;28.40;99.90;;;;;;5088913;28;20180;-72
2023/12/04 04:40:21;;;;;;;2.40;1.10;;;28.80;99.90;;;;;;5089461;28;20183;-73
2023/12/04 04:42:49;;;;;;;4.17;1.20;;;28.90;99.90;;;;;;5089494;28;20179;-73
2023/12/04 04:45:16;;;;;;;4.83;1.17;;;29.10;99.90;;;;;;5089041;28;20175;-73
2023/12/04 04:47:43;;;;;;;3.70;1.00;;;29.50;99.90;;;;;;5088807;28;20210;-72
2023/12/04 04:50:11;;;;;;;2.50;0.70;;;29.60;99.90;;;;;;5089050;28;20179;-72
2023/12/04 04:52:38;;;;;;;4.80;0.90;;;29.50;99.90;;;;;;5088138;28;20184;-73
2023/12/04 04:55:06;;;;;;;3.73;1.00;;;29.20;99.90;;;;;;5089416;28;20172;-73
2023/12/04 04:57:34;;;;;;;0.90;0.60;;;29.50;99.90;;;;;;5089269;28;20205;-72
2023/12/04 05:00:01;;;;;;;2.50;0.90;;;29.50;99.90;;;;;;5088414;28;20175;-74
2023/12/04 05:02:28;;;;;;;2.23;0.80;;;29.00;99.90;;;;;;5087610;28;20189;-73
2023/12/04 05:04:56;;;;;;;3.10;0.80;;;28.80;99.90;;;;;;5087954;28;20190;-74
2023/12/04 05:07:23;;;;;;;1.57;0.70;;;28.80;99.90;;;;;;5088264;28;20233;-73
2023/12/04 05:13:12;;;;;;;3.27;0.70;;;28.70;99.90;;;;;;5087767;28;20202;-73
2023/12/04 05:15:40;;;;;;;3.33;0.80;;;28.50;99.90;;;;;;5088856;28;20184;-72
2023/12/04 05:18:07;;;;;;;1.60;0.60;;;28.40;99.90;;;;;;5088788;28;20175;-73
2023/12/04 05:20:35;;;;;;;1.30;0.60;;;28.20;99.90;;;;;;5086813;28;20179;-73
2023/12/04 05:23:02;;;;;;;1.63;0.50;;;28.20;99.90;;;;;;5088667;28;20180;-72
2023/12/04 05:25:29;;;;;;;1.70;0.73;;;28.10;99.90;;;;;;5088640;28;20171;-72
2023/12/04 05:27:57;;;;;;;3.67;0.60;;;28.00;99.90;;;;;;5088081;28;20231;-72
2023/12/04 05:37:08;;;;;;;4.63;0.60;;;27.80;99.90;;;;;;5086713;28;20311;-71
2023/12/04 05:39:35;;;;;;;5.83;0.80;;;27.80;99.90;;;;;;5074459;28;20533;-74
2023/12/04 05:42:03;;;;;;;1.93;0.70;;;28.20;99.90;;;;;;5075150;28;20191;-73
2023/12/04 05:44:31;;;;;;;1.40;0.50;;;28.10;99.90;;;;;;5074400;28;20550;-73
2023/12/04 05:46:59;;;;;;;2.37;0.50;;;28.10;99.90;;;;;;5074671;28;20227;-74
2023/12/04 05:49:26;;;;;;;2.10;0.60;;;28.20;99.90;;;;;;5074308;28;20180;-71
2023/12/04 05:51:53;;;;;;;1.30;0.53;;;28.10;99.90;;;;;;5074121;28;20196;-72
2023/12/04 05:54:21;;;;;;;10.83;0.60;;;27.80;99.90;;;;;;5074578;28;20207;-72
2023/12/04 05:56:48;;;;;;;1.73;0.43;;;27.70;99.90;;;;;;5073348;28;20255;-73
2023/12/04 05:59:15;;;;;;;2.40;0.77;;;27.70;99.90;;;;;;5074004;28;20188;-72
2023/12/04 06:01:43;;;;;;;4.60;0.70;;;27.70;99.90;;;;;;5073640;28;20198;-77
2023/12/04 06:04:10;;;;;;;3.80;0.47;;;27.30;99.90;;;;;;5074710;28;20750;-77
2023/12/04 06:06:37;;;;;;;4.37;0.90;;;27.30;99.90;;;;;;5073837;28;20680;-76
2023/12/04 06:09:05;;;;;;;3.47;0.60;;;27.20;99.90;;;;;;5074442;28;20200;-74
2023/12/04 06:11:32;;;;;;;1.67;0.87;;;27.10;99.90;;;;;;5074538;28;20199;-78
2023/12/04 06:14:00;;;;;;;9.13;0.93;;;26.80;99.90;;;;;;5073646;28;20653;-77
2023/12/04 06:16:27;;;;;;;1.50;0.50;;;26.70;99.90;;;;;;5074401;28;20190;-71
2023/12/04 06:18:54;;;;;;;1.97;0.60;;;26.70;99.90;;;;;;5074257;28;20206;-74
2023/12/04 06:21:21;;;;;;;2.93;0.87;;;27.00;99.90;;;;;;5072513;28;20216;-75
2023/12/04 06:23:49;;;;;;;3.10;0.40;;;26.90;99.90;;;;;;5074126;28;20180;-73
2023/12/04 06:26:17;;;;;;;5.03;0.53;;;26.70;99.90;;;;;;5073441;28;20753;-71
2023/12/04 06:28:45;;;;;;;1.47;0.50;;;26.50;99.90;;;;;;5073560;28;20686;-76
2023/12/04 06:31:13;;;;;;;1.87;0.60;;;26.60;99.90;;;;;;5073652;28;20249;-71
2023/12/04 06:33:41;;;;;;;4.33;0.53;;;26.30;99.90;;;;;;5074051;28;20204;-73
2023/12/04 06:36:09;;;;;;;1.50;0.43;;;26.40;99.90;;;;;;5073146;28;20704;-77
2023/12/04 06:38:41;;;;;;;0.53;0.47;;;26.50;99.90;;;;;;5072919;28;20283;-76
2023/12/04 06:41:09;;;;;;;1.50;0.50;;;26.70;99.90;;;;;;5073788;28;20204;-77
2023/12/04 06:43:37;;;;;;;2.37;0.40;;;26.50;99.90;;;;;;5075004;28;20221;-79
2023/12/04 06:46:05;;;;;;;2.83;0.50;;;26.50;99.90;;;;;;5075617;28;20295;-79
2023/12/04 06:48:33;;;;;;;0.80;0.60;;;26.40;99.90;;;;;;5074416;28;20305;-79
2023/12/04 06:51:00;;;;;;;2.47;0.60;;;26.20;99.90;;;;;;5073877;28;20202;-79
2023/12/04 06:53:28;;;;;;;2.30;0.60;;;26.20;99.90;;;;;;5074499;28;20217;-77
2023/12/04 06:55:55;;;;;;;0.73;0.40;;;26.00;99.90;;;;;;5074762;28;20186;-80
2023/12/04 06:58:23;;;;;;;3.50;0.50;;;26.10;99.90;;;;;;5073735;28;20184;-79
2023/12/04 07:00:50;;;;;;;2.13;0.50;;;26.10;99.90;;;;;;5073963;28;20180;-80
2023/12/04 07:03:17;;;;;;;0.73;0.50;;;25.80;99.90;;;;;;5073624;28;20188;-79
2023/12/04 07:05:45;;;;;;;2.40;0.53;;;25.90;99.90;;;;;;5071140;28;20572;-78
2023/12/04 07:08:12;;;;;;;4.33;0.57;;;25.90;99.90;;;;;;5074789;28;20184;-80
2023/12/04 07:10:40;;;;;;;3.80;0.93;;;25.90;99.90;;;;;;5073449;28;20179;-77
2023/12/04 07:13:07;;;;;;;1.47;0.47;;;25.70;99.90;;;;;;5073356;28;20192;-70
2023/12/04 07:15:35;;;;;;;9.77;0.60;;;25.60;99.90;;;;;;5073201;28;20279;-79
2023/12/04 07:18:03;;;;;;;3.27;0.60;;;25.40;99.90;;;;;;5071590;28;20191;-78
2023/12/04 07:20:31;;;;;;;2.23;0.50;;;25.30;99.90;;;;;;5074217;28;20225;-74
2023/12/04 07:22:58;;;;;;;3.73;0.50;;;25.30;99.90;;;;;;5072444;28;20192;-76
2023/12/04 07:26:14;;;;;;;1.53;0.50;;;25.10;99.90;;;;;;5072200;28;20176;-78
2023/12/04 07:28:41;;;;;;;4.77;1.40;;;25.00;99.90;;;;;;5071886;28;20234;-78
2023/12/04 07:31:09;;;;;;;3.43;0.80;;;25.00;99.90;;;;;;5073006;28;20544;-78
2023/12/04 07:33:36;;;;;;;1.43;0.77;;;24.90;99.90;;;;;;5072656;28;20262;-78
2023/12/04 07:36:04;;;;;;;3.27;1.07;;;24.60;99.90;;;;;;5072458;28;20543;-76
2023/12/04 07:38:31;;;;;;;1.47;0.77;;;24.60;99.90;;;;;;5072763;28;20172;-74
2023/12/04 07:40:58;;;;;;;1.50;0.47;;;24.80;99.90;;;;;;5072864;28;20175;-77
2023/12/04 07:43:27;;;;;;;6.03;0.90;;;24.80;99.90;;;;;;5071935;28;20172;-73
2023/12/04 07:45:57;;;;;;;5.67;0.70;;;24.50;99.90;;;;;;5072790;28;20184;-80
2023/12/04 07:48:25;;;;;;;0.80;0.50;;;24.40;99.90;;;;;;5073051;28;20532;-78
2023/12/04 07:50:52;;;;;;;4.23;1.00;;;24.30;99.90;;;;;;5075020;28;20171;-77
2023/12/04 07:53:19;;;;;;;2.67;0.50;;;24.20;99.90;;;;;;5073471;28;20208;-78
2023/12/04 07:55:48;;;;;;;5.00;0.80;;;24.20;99.90;;;;;;5074451;28;20255;-75
2023/12/04 07:58:15;;;;;;;2.60;0.60;;;24.30;99.90;;;;;;5072203;28;20285;-72
2023/12/04 08:00:43;;;;;;;1.03;0.60;;;24.40;99.90;;;;;;5071993;28;20665;-75
2023/12/04 08:03:10;;;;;;;2.30;0.60;;;24.50;99.90;;;;;;5072431;28;20271;-76
2023/12/04 08:05:38;;;;;;;2.50;0.50;;;24.60;99.90;;;;;;5072072;28;20176;-73
2023/12/04 08:08:05;;;;;;;1.10;0.60;;;24.60;99.90;;;;;;5072124;28;20209;-74
2023/12/04 08:10:33;;;;;;;1.77;0.50;;;24.70;99.90;;;;;;5072308;28;20715;-71
2023/12/04 08:13:00;;;;;;;2.40;0.47;;;24.60;99.90;;;;;;5070425;28;20188;-75
2023/12/04 08:15:27;;;;;;;5.60;0.60;;;24.40;99.90;;;;;;5072218;28;20652;-73
2023/12/04 08:21:17;;;;;;;2.07;0.60;;;23.70;99.90;;;;;;5071504;28;20178;-74
2023/12/04 08:23:44;;;;;;;1.90;0.80;;;23.40;99.90;;;;;;5071469;28;20191;-75
2023/12/04 08:26:11;;;;;;;3.07;0.70;;;23.20;99.90;;;;;;5071671;28;20210;-74
2023/12/04 08:28:41;;;;;;;4.73;0.80;;;23.10;99.90;;;;;;5071901;28;20231;-73
2023/12/04 08:31:09;;;;;;;3.77;0.60;;;23.00;99.90;;;;;;5072189;28;20633;-74
2023/12/04 08:33:37;;;;;;;1.03;0.40;;;23.00;99.90;;;;;;5071338;28;20176;-76
2023/12/04 08:36:05;;;;;;;2.13;0.73;;;22.80;99.90;;;;;;5071997;28;20641;-73
2023/12/04 08:38:32;;;;;;;3.80;0.77;;;22.80;99.90;;;;;;5071980;28;20202;-72
2023/12/04 08:41:00;;;;;;;1.50;0.60;;;22.70;99.90;;;;;;5070166;28;20297;-74
2023/12/04 08:43:28;;;;;;;1.60;0.70;;;22.60;99.90;;;;;;5071171;28;20643;-73
2023/12/04 08:45:56;;;;;;;2.93;0.67;;;22.60;99.90;;;;;;5071718;28;20250;-73
2023/12/04 08:48:23;;;;;;;2.10;0.50;;;22.50;99.90;;;;;;5071207;28;20266;-72
2023/12/04 08:50:51;;;;;;;2.20;0.60;;;22.40;99.90;;;;;;5071756;28;20183;-71
2023/12/04 08:53:18;;;;;;;2.13;0.80;;;22.30;99.90;;;;;;5071812;28;20195;-74
2023/12/04 08:55:45;;;;;;;1.47;0.70;;;22.20;99.90;;;;;;5071379;28;20187;-74
2023/12/04 08:58:13;;;;;;;3.10;0.97;;;22.20;99.90;;;;;;5071732;28;20184;-73
2023/12/04 09:00:42;;;;;;;0.60;0.50;;;22.10;99.90;;;;;;5071576;28;20546;-73
2023/12/04 09:03:10;;;;;;;5.30;0.60;;;22.00;99.90;;;;;;5071209;28;20282;-70
2023/12/04 09:05:38;;;;;;;3.30;0.60;;;22.00;99.90;;;;;;5071927;28;20170;-74
2023/12/04 09:08:06;;;;;;;1.63;0.67;;;21.90;99.90;;;;;;5071705;28;20218;-75
2023/12/04 09:10:34;;;;;;;2.10;0.60;;;21.80;99.90;;;;;;5071250;28;20192;-74
2023/12/04 09:13:01;;;;;;;2.10;0.50;;;21.70;99.90;;;;;;5072189;28;20195;-74
2023/12/04 09:15:28;;;;;;;1.97;0.70;;;21.60;99.90;;;;;;5076352;28;20265;-74
2023/12/04 09:17:56;;;;;;;1.27;0.70;;;21.70;99.90;;;;;;5076475;28;20176;-75
2023/12/04 09:20:23;;;;;;;2.47;0.60;;;21.60;99.90;;;;;;5076322;28;20543;-73
2023/12/04 09:22:51;;;;;;;1.60;0.57;;;21.50;99.90;;;;;;5076308;28;20617;-73
2023/12/04 09:25:18;;;;;;;2.13;0.87;;;21.50;99.90;;;;;;5076633;28;20176;-72
2023/12/04 09:27:46;;;;;;;3.03;0.73;;;21.40;99.90;;;;;;5074966;28;20305;-72
2023/12/04 09:30:13;;;;;;;3.50;0.67;;;21.40;99.90;;;;;;5076338;28;20172;-73
2023/12/04 09:32:41;;;;;;;2.23;0.60;;;21.30;99.90;;;;;;5076455;28;20175;-73
2023/12/04 09:35:09;;;;;;;3.83;0.90;;;21.40;99.90;;;;;;5056032;28;20179;-75
2023/12/04 09:37:36;;;;;;;2.47;0.80;;;21.30;99.90;;;;;;5074827;28;20194;-73
2023/12/04 09:40:05;;;;;;;1.80;0.80;;;21.30;99.90;;;;;;5073753;28;20180;-76
2023/12/04 09:42:33;;;;;;;3.20;0.77;;;21.20;99.90;;;;;;5074590;28;20210;-74
2023/12/04 09:45:01;;;;;;;5.53;1.13;;;21.20;99.90;;;;;;5075154;28;20621;-75
2023/12/04 09:47:32;;;;;;;4.93;0.80;;;21.30;99.90;;;;;;5074726;28;20574;-77
2023/12/04 09:50:00;;;;;;;3.47;1.17;;;21.20;99.90;;;;;;5074399;28;20264;-74
2023/12/04 09:52:31;;;;;;;1.90;0.77;;;21.20;99.90;;;;;;5073498;28;20219;-76
2023/12/04 09:54:59;;;;;;;1.90;0.73;;;21.20;99.90;;;;;;5074865;28;20182;-76
2023/12/04 09:57:27;;;;;;;1.73;0.80;;;21.20;99.90;;;;;;5074200;28;20225;-77
2023/12/04 09:59:55;;;;;;;3.63;1.30;;;21.10;99.90;;;;;;5074551;28;20258;-75
2023/12/04 10:02:22;;;;;;;3.83;0.77;;;21.10;99.90;;;;;;5074536;28;20280;-72
2023/12/04 10:04:50;;;;;;;2.23;0.90;;;21.10;99.90;;;;;;5074208;28;20176;-71
2023/12/04 10:07:17;;;;;;;2.70;0.60;;;21.00;99.90;;;;;;5074555;28;20705;-73
2023/12/04 10:09:44;;;;;;;3.63;0.87;;;21.00;99.90;;;;;;5074546;28;20302;-71
2023/12/04 10:12:12;;;;;;;2.90;0.70;;;21.00;99.90;;;;;;5072878;28;20240;-75
2023/12/04 10:14:40;;;;;;;1.17;0.63;;;20.90;99.90;;;;;;5074418;28;20214;-74
2023/12/04 10:17:17;;;;;;;2.07;0.80;;;20.90;99.90;;;;;;5074381;28;20641;-74
2023/12/04 10:19:45;;;;;;;2.63;0.80;;;20.90;99.90;;;;;;5073938;28;20183;-75
2023/12/04 10:22:14;;;;;;;2.67;0.90;;;20.80;99.90;;;;;;5073877;28;20191;-71
2023/12/04 10:24:41;;;;;;;2.83;1.17;;;20.90;99.90;;;;;;5073439;28;20184;-73
2023/12/04 10:27:12;;;;;;;3.73;0.83;;;20.90;99.90;;;;;;5073285;28;20242;-75
2023/12/04 10:29:47;;;;;;;2.13;0.80;;;20.80;99.90;;;;;;5074161;28;20175;-74
2023/12/04 10:32:21;;;;;;;2.93;0.77;;;20.80;99.90;;;;;;5075726;28;20224;-73
2023/12/04 10:34:50;;;;;;;3.07;0.73;;;20.80;99.90;;;;;;5073916;28;20213;-74
2023/12/04 10:37:19;;;;;;;2.87;0.93;;;20.80;99.90;;;;;;5071886;28;20580;-72
2023/12/04 10:39:48;;;;;;;3.30;0.97;;;20.80;99.90;;;;;;5074741;28;20181;-75
2023/12/04 10:42:30;;;;;;;2.17;1.03;;;20.70;99.90;;;;;;5073991;28;20195;-74
2023/12/04 10:44:58;;;;;;;4.33;0.77;;;20.70;99.90;;;;;;5074428;28;20178;-74
2023/12/04 10:47:27;;;;;;;2.40;0.87;;;20.70;99.90;;;;;;5074058;28;20322;-72
2023/12/04 10:49:55;;;;;;;4.07;0.80;;;20.50;99.90;;;;;;5074490;28;20646;-73
2023/12/04 10:52:23;;;;;;;3.30;0.87;;;20.60;99.90;;;;;;5074390;28;20666;-72
2023/12/04 10:54:51;;;;;;;3.90;0.90;;;20.60;99.90;;;;;;5073691;28;20310;-72
2023/12/04 10:57:28;;;;;;;3.37;1.00;;;20.60;99.90;;;;;;5073113;28;20531;-74
2023/12/04 11:00:08;;;;;;;4.50;1.10;;;20.50;99.90;;;;;;5071649;28;20534;-74
2023/12/04 11:02:48;;;;;;;1.10;0.90;;;20.60;99.90;;;;;;5071610;28;20736;-75
2023/12/04 11:05:21;;;;;;;1.77;0.90;;;20.60;99.90;;;;;;5074003;28;20252;-73
2023/12/04 11:08:01;;;;;;;10.27;1.20;;;20.50;99.90;;;;;;5073620;28;20238;-73
2023/12/04 11:10:31;;;;;;;2.83;1.10;;;20.30;99.90;;;;;;5073037;28;20651;-72
2023/12/04 11:13:22;;;;;;;3.47;1.00;;;20.20;99.90;;;;;;5072189;28;20271;-74
2023/12/04 11:15:52;;;;;;;3.97;1.10;;;20.20;99.90;;;;;;5073955;28;20179;-71
2023/12/04 11:18:24;;;;;;;3.43;1.10;;;20.10;99.90;;;;;;5070348;28;20186;-71
2023/12/04 11:20:59;;;;;;;2.20;0.80;;;20.10;99.90;;;;;;5072024;28;20185;-73
2023/12/04 11:23:27;;;;;;;2.93;1.00;;;20.10;99.90;;;;;;5073390;28;20184;-73
2023/12/04 11:26:00;;;;;;;1.43;1.10;;;20.00;99.90;;;;;;5072828;28;20192;-73
2023/12/04 11:28:28;;;;;;;1.37;1.10;;;20.00;99.90;;;;;;5073141;28;20235;-72
2023/12/04 11:30:56;;;;;;;2.43;1.10;;;19.90;99.90;;;;;;5073104;28;20186;-73
2023/12/04 11:33:24;;;;;;;3.23;0.90;;;19.90;99.90;;;;;;5072938;28;20245;-73
2023/12/04 11:35:52;;;;;;;4.90;1.17;;;19.90;99.90;;;;;;5072377;28;20240;-72
2023/12/04 11:38:19;;;;;;;3.73;0.80;;;19.90;99.90;;;;;;5072862;28;20545;-73
2023/12/04 11:40:53;;;;;;;1.70;0.87;;;19.90;99.90;;;;;;5072186;28;20198;-73
2023/12/04 11:43:28;;;;;;;4.23;0.83;;;19.90;99.90;;;;;;5072887;28;20207;-74
2023/12/04 11:46:25;;;;;;;4.00;1.43;;;19.80;99.90;;;;;;5072827;28;20265;-73
2023/12/04 11:49:14;;;;;;;7.43;1.20;;;19.90;99.90;;;;;;5066655;28;20203;-72
2023/12/04 11:51:50;;;;;;;3.23;1.23;;;20.00;99.90;;;;;;5072970;28;20557;-74
2023/12/04 11:54:24;;;;;;;3.90;1.43;;;20.00;99.90;;;;;;5071151;28;20336;-75
2023/12/04 11:57:10;;;;;;;7.27;1.13;;;19.90;99.90;;;;;;5072767;28;20182;-72
2023/12/04 11:59:42;;;;;;;3.87;1.03;;;19.90;99.90;;;;;;5073474;28;20174;-73
2023/12/04 12:02:11;;;;;;;3.50;1.20;;;20.00;99.90;;;;;;5072473;28;20221;-74
2023/12/04 12:04:39;;;;;;;2.63;1.03;;;20.10;99.90;;;;;;5072530;28;20275;-73
2023/12/04 12:07:07;;;;;;;6.17;1.00;;;20.10;99.90;;;;;;5072388;28;20690;-73
2023/12/04 12:09:37;;;;;;;2.83;1.07;;;20.10;99.90;;;;;;5070741;28;20184;-72
2023/12/04 12:12:05;;;;;;;5.93;1.07;;;20.00;99.90;;;;;;5072476;28;20746;-72
2023/12/04 12:14:33;;;;;;;5.00;1.40;;;20.00;99.90;;;;;;5071381;28;20227;-74
2023/12/04 12:17:02;;;;;;;2.07;1.00;;;19.90;99.90;;;;;;5072571;28;20263;-72
2023/12/04 12:19:29;;;;;;;7.13;1.43;;;19.90;99.90;;;;;;5073183;28;20235;-74
2023/12/04 12:21:56;;;;;;;7.63;2.23;;;19.90;99.90;;;;;;5073827;28;20180;-72
2023/12/04 12:24:26;;;;;;;6.73;1.37;;;19.90;99.90;;;;;;5073752;28;20177;-73
2023/12/04 12:26:55;;;;;;;6.00;1.30;;;19.80;99.90;;;;;;5073309;28;20712;-74
2023/12/04 12:29:22;;;;;;;4.47;1.13;;;19.80;99.90;;;;;;5072871;28;20655;-74
2023/12/04 12:31:50;;;;;;;5.53;1.27;;;19.90;99.90;;;;;;5071605;28;20193;-73
2023/12/04 12:34:18;;;;;;;2.27;1.03;;;19.90;99.90;;;;;;5073945;28;20188;-74
2023/12/04 12:36:46;;;;;;;9.07;1.37;;;19.90;99.90;;;;;;5073897;28;20184;-75
2023/12/04 12:39:15;;;;;;;1.07;0.80;;;19.80;99.90;;;;;;5073809;28;20188;-74
2023/12/04 12:41:49;;;;;;;5.30;1.30;;;19.80;99.90;;;;;;5073312;28;20246;-74
2023/12/04 12:44:17;;;;;;;6.23;1.20;;;19.90;99.90;;;;;;5073627;28;20190;-74
2023/12/04 12:46:52;;;;;;;2.23;0.70;;;19.90;99.90;;;;;;5073650;28;20309;-73
2023/12/04 12:49:22;;;;;;;5.53;1.10;;;19.90;99.90;;;;;;5075934;28;20197;-73
2023/12/04 12:51:49;;;;;;;3.93;0.83;;;19.90;99.90;;;;;;5077120;28;20607;-71
2023/12/04 12:54:17;;;;;;;11.60;1.17;;;19.90;99.90;;;;;;5077493;28;20190;-72
2023/12/04 12:56:44;;;;;;;4.50;0.87;;;19.90;99.90;;;;;;5076194;28;20176;-74
2023/12/04 12:59:11;;;;;;;5.17;0.93;;;19.90;99.90;;;;;;5077336;28;20187;-75
2023/12/04 13:01:39;;;;;;;4.83;0.90;;;19.90;99.90;;;;;;5077153;28;20180;-69
2023/12/04 13:04:06;;;;;;;3.23;1.00;;;19.90;99.90;;;;;;5075721;28;20192;-71
2023/12/04 13:06:33;;;;;;;3.10;0.80;;;19.80;99.90;;;;;;5076643;28;20215;-71
2023/12/04 13:09:01;;;;;;;4.37;1.33;;;19.70;99.90;;;;;;5076208;28;20179;-70
2023/12/04 13:11:28;;;;;;;3.53;0.80;;;19.70;99.90;;;;;;5063252;28;20184;-70
2023/12/04 13:13:57;;;;;;;2.57;0.90;;;19.60;99.90;;;;;;5076950;28;20184;-74
2023/12/04 13:16:24;;;;;;;4.43;1.00;;;19.60;99.90;;;;;;5075776;28;20274;-73
2023/12/04 13:18:52;;;;;;;3.87;0.90;;;19.60;99.90;;;;;;5076297;28;20176;-70
2023/12/04 13:21:19;;;;;;;4.17;1.30;;;19.60;99.90;;;;;;5076780;28;20174;-71
2023/12/04 13:23:46;;;;;;;3.80;1.00;;;19.60;99.90;;;;;;5076885;28;20186;-69
2023/12/04 13:26:15;;;;;;;4.73;1.07;;;19.60;99.90;;;;;;5076758;28;20204;-74
2023/12/04 13:28:42;;;;;;;4.43;1.27;;;19.60;99.90;;;;;;5074762;28;20227;-74
2023/12/04 13:31:11;;;;;;;5.40;1.33;;;19.60;99.90;;;;;;5075480;28;20192;-73
2023/12/04 13:33:47;;;;;;;2.93;0.90;;;19.50;99.90;;;;;;5075211;28;20525;-69
2023/12/04 13:36:18;;;;;;;3.33;1.00;;;19.50;99.90;;;;;;5074988;28;20191;-70